ENNM/OSY METAR and TAF weather

Enter ICAO airport designator
Station Type Date Time Source
ENNM METAR 2024/04/15 09:20 UTC NOAA

ENNM 150920Z VRB02KT 9999 FEW025 04/M01 Q1006


Station Type Date Time Source
ENNM Decoded METAR 2024/04/15 09:20 UTC NOAA

Namsos Lufthavn, Norway (ENNM) 64-28N 011-35E 2M
Apr 15, 2024 - 05:20 AM EDT / 2024.04.15 0920 UTC
Wind: Variable at 2 MPH (2 KT):0
Visibility: greater than 7 mile(s):0
Sky conditions: mostly clear
Temperature: 39 F (4 C)
Dew Point: 30 F (-1 C)
Relative Humidity: 69%
Pressure (altimeter): 29.71 in. Hg (1006 hPa)
ob: ENNM 150920Z VRB02KT 9999 FEW025 04/M01 Q1006
cycle: 9

Station Type Date Time Source
ENNM TAF 2023/04/04 12:36 UTC NOAA